Time;durP1;ratioP1;P1;durP2;ratioP2;P2;SDS_P1;SDS_P2;PMS_P1;PMS_P2;Temp;Humidity;BMP_temperature;BMP_pressure;BME280_temperature;BME280_humidity;BME280_pressure;Samples;Min_cycle;Max_cycle;Signal;HPM_P1;HPM_P2
2022/12/09 00:01:39;;;;;;;12.10;9.10;;;6.00;73.90;;;9.00;53.30;100673.88;5053340;28;20198;-55
2022/12/09 00:04:06;;;;;;;12.00;8.97;;;6.00;73.70;;;8.97;53.16;100674.19;5053203;28;20199;-54
2022/12/09 00:06:34;;;;;;;11.90;9.30;;;5.90;73.60;;;8.96;53.17;100677.81;5053585;28;20268;-54
2022/12/09 00:09:01;;;;;;;9.53;8.53;;;5.90;73.80;;;8.95;53.07;100670.91;5052838;28;20287;-52
2022/12/09 00:11:28;;;;;;;10.00;9.00;;;5.90;73.60;;;8.94;53.30;100674.50;5053616;28;20178;-52
2022/12/09 00:13:58;;;;;;;10.50;8.80;;;5.90;73.40;;;8.96;53.38;100672.56;5053069;28;20198;-52
2022/12/09 00:16:25;;;;;;;11.67;8.97;;;5.90;74.80;;;8.97;52.72;100668.94;5053346;28;20550;-53
2022/12/09 00:18:52;;;;;;;10.77;8.20;;;5.90;72.90;;;8.94;52.76;100669.25;5052825;28;20231;-52
2022/12/09 00:21:22;;;;;;;12.00;9.43;;;5.90;72.30;;;8.91;52.73;100666.16;5053493;28;20275;-52
2022/12/09 00:23:52;;;;;;;10.30;8.43;;;5.90;72.40;;;8.89;52.66;100663.69;5053416;28;20190;-54
2022/12/09 00:26:21;;;;;;;9.50;8.27;;;5.80;72.40;;;8.82;52.22;100660.09;5053488;28;20193;-53
2022/12/09 00:28:49;;;;;;;9.50;8.23;;;5.80;72.30;;;8.76;52.88;100661.59;5053012;28;20205;-53
2022/12/09 00:31:20;;;;;;;13.87;8.60;;;5.80;73.70;;;8.76;52.94;100655.50;5035892;28;20259;-53
2022/12/09 00:33:47;;;;;;;10.30;8.47;;;5.80;72.80;;;8.76;52.68;100666.00;5056060;28;20214;-51
2022/12/09 00:36:18;;;;;;;12.13;9.37;;;5.80;72.90;;;8.75;53.08;100665.19;5056740;28;20220;-53
2022/12/09 00:38:46;;;;;;;9.80;8.80;;;5.80;73.20;;;8.77;52.20;100662.41;5052065;28;20233;-54
2022/12/09 00:41:15;;;;;;;9.43;8.37;;;5.90;72.60;;;8.78;52.83;100664.03;5057752;28;20203;-53
2022/12/09 00:43:43;;;;;;;10.50;9.33;;;5.80;72.80;;;8.82;52.58;100667.97;5073495;28;20197;-55
2022/12/09 00:46:11;;;;;;;9.37;8.43;;;5.90;72.90;;;8.87;52.64;100673.53;5063432;28;20242;-51
2022/12/09 00:48:41;;;;;;;10.30;8.77;;;6.00;73.30;;;8.93;52.72;100670.25;5035621;28;20226;-53
2022/12/09 00:51:13;;;;;;;12.27;9.23;;;6.00;72.90;;;8.97;52.42;100668.94;5054996;28;20629;-51
2022/12/09 00:53:41;;;;;;;13.33;8.50;;;6.10;72.80;;;9.04;52.38;100664.66;5057874;28;20245;-52
2022/12/09 00:56:08;;;;;;;10.63;8.63;;;6.10;72.60;;;9.06;52.42;100662.69;5057668;28;20232;-53
2022/12/09 00:58:35;;;;;;;14.53;8.90;;;6.20;72.30;;;9.09;51.92;100665.00;5056821;28;20245;-52
2022/12/09 01:01:03;;;;;;;9.30;7.97;;;6.20;71.60;;;9.13;51.67;100662.88;5057284;28;20190;-52
2022/12/09 01:03:30;;;;;;;12.23;10.03;;;6.20;71.50;;;9.15;51.95;100656.44;5056695;28;20203;-53
2022/12/09 01:05:59;;;;;;;9.73;8.73;;;6.20;71.40;;;9.20;51.72;100664.63;5056908;28;20190;-52
2022/12/09 01:08:26;;;;;;;10.27;8.97;;;6.20;71.60;;;9.28;51.72;100666.41;5057397;28;20268;-52
2022/12/09 01:10:53;;;;;;;10.67;9.03;;;6.30;71.60;;;9.31;51.27;100661.66;5056596;28;20220;-52
2022/12/09 01:13:20;;;;;;;10.00;8.77;;;6.30;71.40;;;9.33;51.33;100670.19;5056971;28;20190;-53
2022/12/09 01:15:47;;;;;;;10.33;9.27;;;6.40;71.50;;;9.30;50.54;100680.19;5057015;28;20185;-52
2022/12/09 01:18:14;;;;;;;11.60;9.67;;;6.40;70.40;;;9.21;50.80;100684.66;5056136;28;20196;-52
2022/12/09 01:20:41;;;;;;;12.80;9.57;;;6.30;70.00;;;9.10;50.91;100679.78;5056554;28;20182;-53
2022/12/09 01:23:10;;;;;;;12.37;9.43;;;6.30;69.90;;;9.03;51.15;100678.78;5056524;28;20203;-53
2022/12/09 01:25:37;;;;;;;13.50;8.93;;;6.20;70.20;;;8.96;50.84;100671.75;5056420;28;20194;-56
2022/12/09 01:28:05;;;;;;;11.13;8.70;;;6.10;70.30;;;8.85;51.30;100671.09;5058430;28;20657;-54
2022/12/09 01:30:32;;;;;;;11.53;9.10;;;6.00;70.60;;;8.77;51.75;100667.66;5074255;28;20216;-52
2022/12/09 01:32:59;;;;;;;11.27;9.97;;;6.00;70.70;;;8.65;51.24;100674.22;5056230;28;20195;-52
2022/12/09 01:35:26;;;;;;;11.47;9.33;;;5.90;70.60;;;8.56;51.44;100675.16;5055487;28;20272;-53
2022/12/09 01:37:53;;;;;;;12.03;9.30;;;5.80;70.70;;;8.47;52.30;100670.91;5054739;28;20206;-52
2022/12/09 01:40:22;;;;;;;14.40;10.17;;;5.70;71.20;;;8.42;52.21;100670.56;5055776;28;20221;-52
2022/12/09 01:42:49;;;;;;;14.47;10.10;;;5.70;71.60;;;8.33;52.41;100674.16;5055943;28;20189;-54
2022/12/09 01:45:41;;;;;;;12.60;10.77;;;5.60;71.40;;;8.18;52.31;100666.91;5055780;28;20252;-53
2022/12/09 01:48:12;;;;;;;14.30;10.77;;;5.50;71.60;;;8.14;52.91;100664.75;5051366;28;20231;-55
2022/12/09 01:50:46;;;;;;;13.83;10.33;;;5.50;72.30;;;8.08;52.81;100666.22;5055546;28;20694;-52
2022/12/09 01:53:16;;;;;;;15.90;10.90;;;5.40;72.20;;;8.02;53.07;100666.88;5055748;28;20593;-54
2022/12/09 01:55:45;;;;;;;13.30;9.27;;;5.30;72.00;;;7.97;53.37;100673.56;5055784;28;20225;-52
2022/12/09 01:58:13;;;;;;;16.43;10.10;;;5.30;72.90;;;7.95;53.67;100676.34;5037151;28;20203;-54
2022/12/09 02:00:42;;;;;;;13.60;10.40;;;5.20;73.30;;;7.95;53.57;100671.09;5035890;28;20274;-52
2022/12/09 02:03:09;;;;;;;12.33;11.00;;;5.20;73.30;;;7.95;53.45;100671.09;5035735;28;20185;-52
2022/12/09 02:05:37;;;;;;;10.00;8.90;;;5.20;74.00;;;7.94;53.55;100674.69;5054083;28;20202;-51
2022/12/09 02:08:10;;;;;;;12.60;9.80;;;5.20;73.30;;;7.92;53.48;100663.56;5054978;28;20205;-56
2022/12/09 02:10:52;;;;;;;13.17;10.50;;;5.10;73.10;;;7.88;53.40;100670.09;5055629;28;20224;-54
2022/12/09 02:13:33;;;;;;;15.97;9.93;;;5.10;73.00;;;7.82;53.48;100665.47;5035345;28;20271;-54
2022/12/09 02:16:07;;;;;;;13.10;9.87;;;5.00;73.10;;;7.78;53.55;100658.94;5035614;28;20188;-55
2022/12/09 02:18:44;;;;;;;13.87;11.50;;;5.00;73.40;;;7.71;53.85;100657.91;5035184;28;20647;-53
2022/12/09 02:21:21;;;;;;;14.23;11.07;;;5.00;73.60;;;7.59;54.13;100664.41;5035615;28;20194;-53
2022/12/09 02:23:59;;;;;;;16.93;12.33;;;4.90;73.60;;;7.40;54.49;100667.28;5050609;28;20597;-53
2022/12/09 02:26:42;;;;;;;18.53;13.43;;;4.80;74.10;;;7.26;55.32;100657.38;5055622;28;20180;-54
2022/12/09 02:29:43;;;;;;;19.00;12.50;;;4.70;74.60;;;7.09;55.67;100653.00;5034741;28;20204;-52
2022/12/09 02:32:52;;;;;;;18.97;13.93;;;4.60;75.00;;;6.94;56.56;100651.97;5035042;28;20239;-53
2022/12/09 02:35:34;;;;;;;18.80;13.23;;;4.50;75.50;;;6.83;56.92;100651.22;5034859;28;20184;-53
2022/12/09 02:38:09;;;;;;;16.87;12.27;;;4.40;75.80;;;6.85;56.59;100647.66;5033690;28;20195;-54
2022/12/09 02:40:47;;;;;;;17.13;12.50;;;4.30;75.70;;;6.89;56.71;100643.75;5036532;28;20190;-53
2022/12/09 02:43:18;;;;;;;19.93;14.57;;;4.30;76.00;;;6.89;56.60;100647.19;5035211;28;20209;-54
2022/12/09 02:45:49;;;;;;;19.47;13.60;;;4.20;76.50;;;6.90;56.68;100645.38;5034581;28;20192;-53
2022/12/09 02:48:24;;;;;;;19.30;14.13;;;4.20;76.40;;;6.88;56.42;100652.56;5034607;28;20194;-52
2022/12/09 02:50:56;;;;;;;18.07;12.97;;;4.20;76.70;;;6.85;56.91;100635.38;5034973;28;20206;-55
2022/12/09 02:53:25;;;;;;;18.47;12.03;;;4.20;77.00;;;6.92;57.03;100640.81;5035149;28;20566;-54
2022/12/09 02:55:55;;;;;;;20.43;15.37;;;4.20;77.50;;;6.97;56.81;100635.94;5042890;28;20205;-55
2022/12/09 02:58:23;;;;;;;23.23;15.47;;;4.20;77.40;;;7.01;56.88;100632.06;5054316;28;20251;-55
2022/12/09 03:00:54;;;;;;;20.90;13.63;;;4.20;77.20;;;7.03;56.44;100640.56;5054670;28;20213;-54
2022/12/09 03:03:22;;;;;;;20.10;14.87;;;4.20;77.50;;;7.04;56.87;100632.53;5054662;28;20653;-53
2022/12/09 03:06:00;;;;;;;19.57;14.20;;;4.20;77.30;;;7.01;56.64;100637.28;5054799;28;20205;-51
2022/12/09 03:08:41;;;;;;;20.80;14.93;;;4.20;77.00;;;6.88;56.94;100642.91;5053577;28;20235;-53
2022/12/09 03:11:12;;;;;;;22.97;15.97;;;4.20;77.20;;;6.77;57.75;100636.13;5054259;28;20201;-53
2022/12/09 03:13:51;;;;;;;20.33;14.77;;;4.10;77.40;;;6.71;57.76;100631.50;5053977;28;20197;-58
2022/12/09 03:16:28;;;;;;;20.30;14.73;;;4.10;77.50;;;6.74;57.18;100636.44;5054288;28;20177;-53
2022/12/09 03:19:02;;;;;;;20.10;14.33;;;4.10;77.60;;;6.77;57.19;100633.50;5054023;28;20199;-53
2022/12/09 03:21:38;;;;;;;21.87;15.83;;;4.10;77.70;;;6.76;56.94;100637.13;5054427;28;20179;-53
2022/12/09 03:24:09;;;;;;;24.53;16.73;;;4.10;78.00;;;6.69;57.67;100638.69;5054021;28;20226;-52
2022/12/09 03:26:39;;;;;;;22.43;16.03;;;4.00;78.10;;;6.66;57.94;100639.00;5049874;28;20606;-52
2022/12/09 03:29:13;;;;;;;21.83;15.60;;;4.00;77.90;;;6.67;57.48;100640.66;5042719;28;20217;-52
2022/12/09 03:31:42;;;;;;;22.67;14.90;;;4.00;78.30;;;6.72;58.13;100638.41;5060962;28;20205;-53
2022/12/09 03:34:15;;;;;;;20.53;14.43;;;4.00;78.20;;;6.75;57.88;100634.66;5053744;28;20186;-53
2022/12/09 03:36:49;;;;;;;22.33;15.90;;;4.00;78.50;;;6.79;57.95;100631.59;5054138;28;20193;-53
2022/12/09 03:39:23;;;;;;;22.63;14.37;;;4.00;78.50;;;6.82;57.09;100631.25;5052389;28;20219;-53
2022/12/09 03:41:55;;;;;;;21.67;14.90;;;4.00;78.50;;;6.89;58.06;100634.09;5054089;28;20205;-55
2022/12/09 03:44:33;;;;;;;21.27;14.63;;;4.00;79.10;;;7.01;57.89;100624.19;5053624;28;20654;-53
2022/12/09 03:47:02;;;;;;;21.13;14.17;;;4.10;79.40;;;7.13;57.29;100630.81;5053484;28;20288;-53
2022/12/09 03:49:30;;;;;;;20.20;14.03;;;4.20;79.20;;;7.24;57.05;100630.53;5053305;28;20213;-52
2022/12/09 03:52:09;;;;;;;19.83;14.17;;;4.30;79.10;;;7.31;56.79;100632.38;5053616;28;20639;-55
2022/12/09 03:54:43;;;;;;;22.90;15.10;;;4.30;78.80;;;7.34;56.71;100626.03;5053222;28;20187;-53
2022/12/09 03:57:14;;;;;;;20.10;14.03;;;4.40;78.10;;;7.36;56.39;100626.69;5053971;28;20203;-53
2022/12/09 03:59:52;;;;;;;19.70;15.33;;;4.40;77.90;;;7.36;56.50;100616.22;5053322;28;20685;-55
2022/12/09 04:02:20;;;;;;;19.50;14.00;;;4.50;78.10;;;7.42;57.26;100619.00;5064623;28;20240;-55
2022/12/09 04:04:48;;;;;;;22.70;13.53;;;4.50;78.30;;;7.51;56.13;100619.88;5063532;28;20286;-55
2022/12/09 04:07:17;;;;;;;18.67;13.50;;;4.60;78.00;;;7.50;55.63;100616.44;5061216;28;20195;-55
2022/12/09 04:09:45;;;;;;;18.77;13.53;;;4.60;77.90;;;7.49;56.20;100627.06;5060162;28;20234;-54
2022/12/09 04:12:12;;;;;;;18.20;12.67;;;4.60;77.00;;;7.49;56.23;100621.81;5062685;28;20210;-54
2022/12/09 04:14:39;;;;;;;19.13;13.63;;;4.60;77.80;;;7.52;55.73;100618.88;5065549;28;20195;-56
2022/12/09 04:17:06;;;;;;;17.60;13.20;;;4.60;77.00;;;7.55;56.12;100613.34;5067554;28;20232;-56
2022/12/09 04:19:34;;;;;;;18.73;13.27;;;4.70;77.10;;;7.60;56.36;100616.31;5066861;28;20211;-55
2022/12/09 04:22:01;;;;;;;19.37;12.67;;;4.70;77.40;;;7.67;56.10;100617.31;5067514;28;20255;-60
2022/12/09 04:24:29;;;;;;;21.70;14.60;;;4.70;77.30;;;7.67;55.55;100619.94;5060705;28;20230;-55
2022/12/09 04:26:57;;;;;;;18.77;12.40;;;4.80;76.70;;;7.63;55.46;100615.97;5067997;28;20195;-56
2022/12/09 04:29:24;;;;;;;20.70;13.97;;;4.80;76.40;;;7.58;55.75;100610.41;5072279;28;20269;-55
2022/12/09 04:31:51;;;;;;;18.67;12.07;;;4.70;76.20;;;7.58;55.48;100609.59;5068829;28;20221;-61
2022/12/09 04:34:19;;;;;;;17.53;13.00;;;4.70;76.30;;;7.59;55.99;100601.56;5064251;28;20189;-56
2022/12/09 04:36:47;;;;;;;18.23;12.23;;;4.70;76.90;;;7.65;55.95;100600.94;5068388;28;20196;-55
2022/12/09 04:39:14;;;;;;;19.60;13.40;;;4.70;77.20;;;7.68;55.75;100600.59;5068784;28;20225;-54
2022/12/09 04:41:43;;;;;;;19.23;13.27;;;4.80;77.20;;;7.72;55.60;100601.94;5068475;28;20188;-52
2022/12/09 04:44:10;;;;;;;19.67;14.10;;;4.80;76.90;;;7.75;55.50;100606.84;5061413;28;20194;-53
2022/12/09 04:46:37;;;;;;;17.93;13.27;;;4.80;76.90;;;7.76;55.45;100591.97;5059067;28;20227;-52
2022/12/09 04:49:05;;;;;;;18.67;13.20;;;4.90;76.70;;;7.74;55.49;100605.22;5060156;28;20602;-52
2022/12/09 04:51:32;;;;;;;16.97;13.03;;;4.90;76.30;;;7.69;55.49;100597.03;5059915;28;20215;-52
2022/12/09 04:54:08;;;;;;;17.73;13.33;;;4.90;76.20;;;7.67;55.71;100601.59;5060656;28;20245;-53
2022/12/09 04:56:35;;;;;;;18.73;13.80;;;4.80;76.00;;;7.62;55.22;100600.44;5061807;28;20187;-52
2022/12/09 04:59:04;;;;;;;17.70;12.37;;;4.80;75.70;;;7.57;55.41;100593.06;5062071;28;20275;-53
2022/12/09 05:01:32;;;;;;;18.50;12.30;;;4.80;76.10;;;7.56;55.56;100599.25;5061241;28;20184;-52
2022/12/09 05:03:59;;;;;;;16.17;12.13;;;4.70;76.50;;;7.56;56.05;100595.84;5061771;28;20682;-55
2022/12/09 05:06:27;;;;;;;16.03;12.27;;;4.70;76.50;;;7.55;55.71;100599.44;5060244;28;20263;-54
2022/12/09 05:08:55;;;;;;;18.33;12.90;;;4.70;76.40;;;7.54;55.97;100598.59;5058533;28;20691;-52
2022/12/09 05:11:23;;;;;;;20.37;13.73;;;4.70;76.80;;;7.55;55.97;100609.91;5060173;28;20624;-52
2022/12/09 05:13:52;;;;;;;17.03;12.53;;;4.70;76.80;;;7.51;55.70;100609.41;5060918;28;20222;-53
2022/12/09 05:16:21;;;;;;;16.53;12.00;;;4.70;76.50;;;7.41;55.67;100611.31;5057873;28;20322;-54
2022/12/09 05:18:48;;;;;;;17.27;12.97;;;4.70;76.00;;;7.34;55.71;100610.31;5056966;28;20635;-53
2022/12/09 05:21:19;;;;;;;20.67;13.30;;;4.70;76.10;;;7.27;56.32;100609.31;5056859;28;20202;-60
2022/12/09 05:23:47;;;;;;;22.83;13.87;;;4.60;76.20;;;7.18;56.21;100613.66;5056856;28;20561;-52
2022/12/09 05:26:17;;;;;;;19.20;13.13;;;4.50;76.30;;;7.04;56.36;100610.78;5056270;28;20603;-53
2022/12/09 05:28:46;;;;;;;20.07;13.60;;;4.40;76.60;;;6.92;56.43;100612.06;5056116;28;20553;-51
2022/12/09 05:31:16;;;;;;;19.53;12.93;;;4.30;76.60;;;6.86;57.12;100612.66;5056296;28;20219;-55
2022/12/09 05:33:47;;;;;;;19.50;13.23;;;4.30;76.90;;;6.80;57.43;100608.84;5056430;28;20537;-50
2022/12/09 05:36:17;;;;;;;19.53;13.37;;;4.20;77.20;;;6.77;57.72;100607.34;5056173;28;20190;-53
2022/12/09 05:38:44;;;;;;;18.33;12.30;;;4.10;77.50;;;6.78;56.97;100606.41;5055476;28;20214;-52
2022/12/09 05:41:12;;;;;;;19.53;13.30;;;4.10;77.60;;;6.81;57.90;100603.47;5056547;28;20220;-52
2022/12/09 05:43:40;;;;;;;17.43;12.33;;;4.00;78.00;;;6.89;57.79;100607.13;5056499;28;20196;-53
2022/12/09 05:46:08;;;;;;;19.03;13.47;;;4.10;78.70;;;6.96;57.85;100602.91;5056613;28;20198;-54
2022/12/09 05:48:35;;;;;;;20.23;13.00;;;4.10;78.90;;;7.03;57.26;100609.16;5038118;28;20312;-52
2022/12/09 05:51:08;;;;;;;18.97;12.90;;;4.10;78.90;;;7.08;57.69;100601.69;5055681;28;20222;-52
2022/12/09 05:53:36;;;;;;;19.37;13.47;;;4.20;79.10;;;7.09;56.75;100604.13;5055851;28;20203;-53
2022/12/09 05:56:04;;;;;;;21.23;13.57;;;4.20;78.20;;;7.05;56.73;100608.03;5055524;28;20247;-53
2022/12/09 05:58:33;;;;;;;17.77;11.47;;;4.20;78.00;;;7.01;56.73;100606.72;5055464;28;20210;-55
2022/12/09 06:01:04;;;;;;;21.80;13.40;;;4.20;78.60;;;6.97;57.08;100594.06;5056014;28;20550;-53
2022/12/09 06:03:32;;;;;;;20.33;13.43;;;4.20;77.70;;;6.91;56.98;100590.28;5055397;28;20188;-56
2022/12/09 06:06:05;;;;;;;20.00;12.93;;;4.20;77.60;;;6.83;56.54;100590.25;5055532;28;20570;-55
2022/12/09 06:08:33;;;;;;;20.27;13.53;;;4.10;77.30;;;6.77;56.73;100588.25;5055205;28;20231;-52
2022/12/09 06:11:01;;;;;;;19.60;13.23;;;4.10;77.60;;;6.73;56.99;100589.50;5055306;28;20221;-53
2022/12/09 06:13:29;;;;;;;24.10;16.90;;;4.10;77.90;;;6.71;57.90;100589.69;5054766;28;20616;-56
2022/12/09 06:16:02;;;;;;;19.30;13.53;;;4.00;78.00;;;6.69;57.29;100591.63;5055654;28;20220;-54
2022/12/09 06:18:30;;;;;;;20.03;14.23;;;4.00;77.90;;;6.62;57.73;100590.59;5055567;28;20294;-53
2022/12/09 06:20:58;;;;;;;20.67;14.20;;;3.90;77.60;;;6.56;57.37;100596.41;5055358;28;20200;-53
2022/12/09 06:23:26;;;;;;;18.30;12.50;;;3.90;77.90;;;6.51;57.75;100596.06;5055972;28;20600;-51
2022/12/09 06:25:54;;;;;;;21.20;13.83;;;3.80;77.90;;;6.45;57.73;100594.06;5055444;28;20242;-53
2022/12/09 06:28:21;;;;;;;18.93;12.97;;;3.80;77.90;;;6.43;57.32;100595.19;5054784;28;20188;-57
2022/12/09 06:30:49;;;;;;;20.30;13.40;;;3.70;78.10;;;6.40;57.74;100591.06;5055597;28;20526;-54
2022/12/09 06:33:16;;;;;;;21.50;13.63;;;3.70;78.20;;;6.42;57.82;100589.13;5055248;28;20185;-53
2022/12/09 06:36:05;;;;;;;20.23;13.17;;;3.60;78.50;;;6.44;57.93;100587.19;5055139;28;20192;-54
2022/12/09 06:38:35;;;;;;;18.87;13.43;;;3.60;78.90;;;6.49;58.56;100587.53;5053062;28;20659;-55
2022/12/09 06:41:06;;;;;;;21.03;14.50;;;3.70;80.00;;;6.54;58.30;100587.91;5055160;28;20271;-54
2022/12/09 06:43:34;;;;;;;18.87;13.40;;;3.70;79.40;;;6.54;57.98;100587.91;5054781;28;20516;-53
2022/12/09 06:46:01;;;;;;;21.53;14.50;;;3.70;79.10;;;6.52;57.15;100594.25;5058768;28;20614;-55
2022/12/09 06:48:29;;;;;;;18.23;12.90;;;3.70;78.60;;;6.47;58.21;100586.06;5054567;28;20586;-53
2022/12/09 06:50:56;;;;;;;20.17;14.03;;;3.70;78.50;;;6.40;57.23;100585.84;5053898;28;20245;-54
2022/12/09 06:53:24;;;;;;;19.00;13.27;;;3.70;78.40;;;6.34;57.27;100591.69;5054646;28;20195;-56
2022/12/09 06:55:52;;;;;;;22.30;13.97;;;3.60;78.20;;;6.31;58.22;100597.22;5055153;28;20192;-52
2022/12/09 06:58:19;;;;;;;21.77;15.30;;;3.60;78.50;;;6.29;57.93;100601.78;5054258;28;20206;-55
2022/12/09 07:00:46;;;;;;;20.10;14.13;;;3.60;79.20;;;6.28;57.79;100607.97;5054622;28;20196;-53
2022/12/09 07:03:15;;;;;;;21.07;14.50;;;3.60;79.00;;;6.30;58.92;100606.00;5057853;28;20638;-53
2022/12/09 07:05:43;;;;;;;20.20;14.17;;;3.50;79.80;;;6.34;58.09;100607.38;5055516;28;20251;-56
2022/12/09 07:08:11;;;;;;;21.73;14.93;;;3.50;79.50;;;6.38;57.89;100602.66;5059304;28;20228;-56
2022/12/09 07:10:38;;;;;;;21.03;13.70;;;3.60;79.80;;;6.35;57.45;100609.00;5062507;28;20562;-53
2022/12/09 07:13:07;;;;;;;23.97;14.50;;;3.60;79.10;;;6.30;58.64;100607.81;5044540;28;20223;-52
2022/12/09 07:15:34;;;;;;;21.27;14.97;;;3.60;78.90;;;6.27;58.54;100608.94;5048917;28;20201;-55
2022/12/09 07:18:01;;;;;;;19.97;13.63;;;3.50;79.20;;;6.27;58.82;100610.72;5063872;28;20201;-56
2022/12/09 07:20:28;;;;;;;19.27;12.53;;;3.50;79.00;;;6.27;58.31;100615.97;5063160;28;20313;-56
2022/12/09 07:22:56;;;;;;;20.67;14.13;;;3.50;79.00;;;6.24;58.52;100611.84;5062254;28;20229;-53
2022/12/09 07:25:24;;;;;;;23.23;14.57;;;3.50;78.90;;;6.23;58.90;100606.78;5059771;28;20196;-56
2022/12/09 07:27:51;;;;;;;22.97;16.00;;;3.50;79.40;;;6.26;58.30;100615.13;5059392;28;20201;-55
2022/12/09 07:30:19;;;;;;;20.97;14.43;;;3.50;79.50;;;6.26;58.37;100615.13;5062064;28;20219;-56
2022/12/09 07:32:48;;;;;;;24.23;15.10;;;3.50;79.40;;;6.26;58.66;100616.91;5047881;28;20214;-56
2022/12/09 07:35:16;;;;;;;24.03;14.00;;;3.50;79.40;;;6.27;59.01;100615.97;5060345;28;20697;-55
2022/12/09 07:37:44;;;;;;;22.00;14.83;;;3.50;79.40;;;6.27;58.43;100619.41;5060696;28;20226;-56
2022/12/09 07:40:11;;;;;;;25.63;14.87;;;3.50;79.60;;;6.30;57.99;100621.69;5059442;28;20287;-54
2022/12/09 07:42:39;;;;;;;29.43;16.67;;;3.50;79.50;;;6.31;57.86;100620.72;5057497;28;20953;-55
2022/12/09 07:45:08;;;;;;;28.03;17.60;;;3.50;79.50;;;6.32;58.46;100630.22;5048991;28;20199;-55
2022/12/09 07:47:37;;;;;;;27.50;16.87;;;3.50;79.80;;;6.25;58.31;100630.97;5054277;28;20199;-55
2022/12/09 07:50:06;;;;;;;28.77;17.03;;;3.50;79.70;;;6.20;58.15;100641.88;5060289;28;20249;-56
2022/12/09 07:52:34;;;;;;;31.80;17.43;;;3.40;79.60;;;6.11;59.21;100640.94;5061564;28;20227;-57
2022/12/09 07:55:01;;;;;;;35.97;19.17;;;3.40;80.00;;;6.02;59.96;100634.00;5061210;28;20199;-55
2022/12/09 07:57:29;;;;;;;31.97;17.43;;;3.40;80.40;;;5.90;60.32;100644.81;5059866;28;20253;-56
2022/12/09 07:59:56;;;;;;;26.80;18.40;;;3.30;80.40;;;5.76;60.13;100640.03;5057645;28;20214;-53
2022/12/09 08:02:23;;;;;;;31.83;18.50;;;3.20;81.00;;;5.63;61.59;100634.38;5051360;28;20194;-53
2022/12/09 08:04:52;;;;;;;48.83;19.93;;;3.10;81.60;;;5.58;61.72;100639.19;5051478;28;20196;-54
2022/12/09 08:07:19;;;;;;;71.17;21.67;;;3.00;81.80;;;5.55;62.28;100647.31;5055170;28;20284;-54
2022/12/09 08:09:47;;;;;;;50.13;19.10;;;3.00;82.90;;;5.54;62.96;100643.06;5061010;28;20227;-56
2022/12/09 08:12:15;;;;;;;65.80;21.93;;;3.00;83.50;;;5.57;62.29;100643.59;5064429;28;20313;-53
2022/12/09 08:14:42;;;;;;;35.80;21.43;;;3.00;84.10;;;5.66;62.96;100644.53;5061752;28;20308;-53
2022/12/09 08:17:09;;;;;;;60.57;22.20;;;2.90;84.10;;;5.76;62.83;100640.03;5057140;28;20665;-54
2022/12/09 08:19:37;;;;;;;42.80;21.70;;;3.00;84.80;;;5.77;63.25;100646.94;5058971;28;20213;-53
2022/12/09 08:22:06;;;;;;;52.07;23.00;;;3.00;85.30;;;5.72;63.00;100641.31;5057926;28;20192;-52
2022/12/09 08:24:35;;;;;;;47.70;21.97;;;3.10;85.50;;;5.76;63.31;100643.47;5062811;28;20272;-53
2022/12/09 08:27:02;;;;;;;49.63;21.03;;;3.10;85.30;;;5.83;63.33;100643.72;5061107;28;20245;-55
2022/12/09 08:29:29;;;;;;;45.07;22.60;;;3.10;85.20;;;5.92;63.70;100642.91;5060844;28;20306;-54
2022/12/09 08:31:56;;;;;;;47.50;22.77;;;3.10;85.50;;;5.95;63.71;100648.63;5072560;28;20226;-55
2022/12/09 08:34:31;;;;;;;40.37;20.47;;;3.20;85.60;;;6.05;62.54;100648.56;5060538;28;20199;-53
2022/12/09 08:37:05;;;;;;;47.73;23.03;;;3.20;85.60;;;6.14;63.58;100647.69;5061242;28;20225;-55
2022/12/09 08:39:34;;;;;;;50.80;24.00;;;3.30;86.20;;;6.25;62.70;100639.63;5056729;28;20228;-55
2022/12/09 08:42:01;;;;;;;68.40;25.63;;;3.30;86.10;;;6.36;63.04;100652.47;5058153;28;20280;-55
2022/12/09 08:44:29;;;;;;;45.33;22.40;;;3.40;86.10;;;6.43;62.26;100650.06;5059269;28;20235;-55
2022/12/09 08:46:56;;;;;;;43.37;22.27;;;3.50;85.70;;;6.45;62.12;100651.56;5045614;28;20193;-54
2022/12/09 08:49:23;;;;;;;51.07;24.83;;;3.50;85.40;;;6.47;62.38;100649.63;5061078;28;20217;-61
2022/12/09 08:51:52;;;;;;;43.53;24.10;;;3.60;84.90;;;6.47;62.20;100651.41;5057596;28;20300;-53
2022/12/09 08:54:20;;;;;;;42.43;23.10;;;3.60;84.90;;;6.48;61.41;100646.03;5048010;28;20191;-55
2022/12/09 08:56:53;;;;;;;41.30;21.13;;;3.60;84.70;;;6.52;61.43;100647.38;5052603;28;20195;-54
2022/12/09 08:59:22;;;;;;;43.23;24.60;;;3.60;84.60;;;6.49;61.29;100652.09;5051900;28;20213;-51
2022/12/09 09:01:50;;;;;;;41.77;22.80;;;3.60;84.30;;;6.47;61.29;100641.78;5052206;28;20191;-54
2022/12/09 09:04:21;;;;;;;44.13;24.23;;;3.70;84.20;;;6.48;62.02;100645.22;5046463;28;20198;-54
2022/12/09 09:06:50;;;;;;;43.93;23.97;;;3.70;84.30;;;6.42;61.67;100646.63;5051189;28;20225;-54
2022/12/09 09:09:21;;;;;;;43.97;24.73;;;3.70;84.20;;;6.45;61.42;100646.34;5052774;28;20234;-52
2022/12/09 09:11:50;;;;;;;48.77;25.93;;;3.70;85.10;;;6.54;61.88;100645.44;5052508;28;20265;-52
2022/12/09 09:14:23;;;;;;;42.33;22.50;;;3.70;84.60;;;6.65;61.58;100647.81;5054089;28;20671;-53
2022/12/09 09:16:50;;;;;;;46.60;26.47;;;3.80;84.50;;;6.74;61.17;100646.09;5057142;28;20216;-53
2022/12/09 09:19:21;;;;;;;33.93;21.90;;;3.80;84.40;;;6.82;61.24;100649.56;5056089;28;20666;-52
2022/12/09 09:21:48;;;;;;;44.27;22.87;;;3.80;84.30;;;6.86;61.16;100644.03;5049564;28;20183;-53
2022/12/09 09:24:18;;;;;;;48.03;23.30;;;3.90;84.10;;;6.88;60.88;100653.38;5055299;28;20202;-54
2022/12/09 09:26:49;;;;;;;48.07;22.90;;;3.90;83.70;;;6.83;59.97;100653.00;5055718;28;20276;-54
2022/12/09 09:29:21;;;;;;;46.37;23.70;;;3.90;83.40;;;6.82;60.99;100654.00;5063578;28;20233;-54
2022/12/09 09:31:52;;;;;;;50.20;25.43;;;3.90;83.30;;;6.77;60.74;100651.81;5055877;28;20195;-54
2022/12/09 09:34:21;;;;;;;44.30;24.40;;;3.90;83.10;;;6.77;60.86;100651.81;5055261;28;20198;-53
2022/12/09 09:36:50;;;;;;;44.43;25.73;;;3.90;83.20;;;6.77;61.08;100645.78;5056199;28;20198;-53
2022/12/09 09:39:19;;;;;;;47.37;24.27;;;3.90;83.20;;;6.76;61.24;100649.38;5039159;28;20214;-57
2022/12/09 09:41:53;;;;;;;54.87;23.53;;;3.90;83.20;;;6.77;60.58;100651.81;5038504;28;20217;-54
2022/12/09 09:44:26;;;;;;;45.27;23.80;;;3.90;83.20;;;6.79;60.41;100649.06;5055389;28;20716;-55
2022/12/09 09:46:56;;;;;;;43.43;24.60;;;3.90;83.30;;;6.73;60.66;100655.72;5052981;28;20303;-55
2022/12/09 09:49:35;;;;;;;39.40;23.87;;;3.90;83.00;;;6.74;60.95;100657.38;5059514;28;20263;-54
2022/12/09 09:52:12;;;;;;;38.93;22.33;;;3.90;83.40;;;6.68;60.52;100662.41;5035674;28;20359;-54
2022/12/09 09:54:40;;;;;;;39.57;22.70;;;3.90;83.00;;;6.65;60.65;100663.50;5056697;28;20193;-52
2022/12/09 09:57:17;;;;;;;41.17;23.30;;;3.90;83.00;;;6.47;60.60;100667.09;5041325;28;20611;-53
2022/12/09 10:00:12;;;;;;;49.90;23.30;;;3.80;82.70;;;6.24;61.10;100650.22;5053640;28;20210;-52
2022/12/09 10:02:57;;;;;;;44.87;23.30;;;3.70;82.30;;;6.25;61.03;100644.88;5038021;28;20283;-53
2022/12/09 10:05:31;;;;;;;42.90;22.63;;;3.70;82.70;;;6.32;61.40;100650.31;5060661;28;20264;-52
2022/12/09 10:08:21;;;;;;;39.40;22.70;;;3.60;82.90;;;6.34;61.77;100643.97;5057803;28;20232;-51
2022/12/09 10:11:06;;;;;;;42.47;24.93;;;3.60;83.40;;;6.39;61.37;100646.94;5041005;28;20279;-53
2022/12/09 10:13:46;;;;;;;41.33;24.27;;;3.60;83.70;;;6.37;61.27;100648.88;5040907;28;20208;-53
2022/12/09 10:16:20;;;;;;;39.63;24.53;;;3.60;83.50;;;6.38;61.22;100650.53;5040111;28;20614;-53
2022/12/09 10:19:02;;;;;;;43.10;24.47;;;3.60;83.70;;;6.36;61.69;100642.00;5052221;28;20223;-53
2022/12/09 10:21:43;;;;;;;45.20;24.63;;;3.60;83.70;;;6.32;61.67;100639.84;5052619;28;20328;-53
2022/12/09 10:24:22;;;;;;;43.63;24.03;;;3.60;83.50;;;6.32;61.59;100639.84;5052076;28;20292;-54
2022/12/09 10:27:09;;;;;;;42.60;23.93;;;3.60;83.70;;;6.30;61.05;100642.59;5045068;28;20193;-52